Time;durP1;ratioP1;P1;durP2;ratioP2;P2;SDS_P1;SDS_P2;PMS_P1;PMS_P2;Temp;Humidity;BMP_temperature;BMP_pressure;BME280_temperature;BME280_humidity;BME280_pressure;Samples;Min_cycle;Max_cycle;Signal;HPM_P1;HPM_P2
2022/11/15 05:05:35;;;;;;;;;;;20.50;99.90;;;;;;4958930;29;19933;-82
2022/11/15 05:08:02;;;;;;;;;;;20.50;99.90;;;;;;4966047;29;19936;-83
2022/11/15 05:10:28;;;;;;;;;;;20.50;99.90;;;;;;4972175;29;19926;-82
2022/11/15 05:12:55;;;;;;;;;;;20.50;99.90;;;;;;4971702;29;19941;-83
2022/11/15 05:15:22;;;;;;;;;;;20.50;99.90;;;;;;4966435;29;19930;-81
2022/11/15 05:17:48;;;;;;;;;;;20.50;99.90;;;;;;4964005;29;19927;-81
2022/11/15 05:20:16;;;;;;;;;;;20.50;99.90;;;;;;4962309;29;19934;-81
2022/11/15 05:22:43;;;;;;;;;;;20.50;99.90;;;;;;4962172;29;19933;-81
2022/11/15 05:25:09;;;;;;;;;;;20.50;99.90;;;;;;4962308;29;19932;-81
2022/11/15 05:27:36;;;;;;;;;;;20.50;99.90;;;;;;4960474;29;20318;-81
2022/11/15 05:30:03;;;;;;;;;;;20.50;99.90;;;;;;4959471;28;19933;-80
2022/11/15 05:32:29;;;;;;;;;;;20.50;99.90;;;;;;4959581;29;19933;-81
2022/11/15 05:34:56;;;;;;;;;;;20.40;99.90;;;;;;4960373;29;20449;-82
2022/11/15 05:37:24;;;;;;;;;;;20.50;99.90;;;;;;4959737;29;19926;-81
2022/11/15 05:39:50;;;;;;;;;;;20.40;99.90;;;;;;4959676;29;19931;-81
2022/11/15 05:42:17;;;;;;;;;;;20.60;99.90;;;;;;4960834;29;19934;-81
2022/11/15 05:44:47;;;;;;;;;;;20.40;99.90;;;;;;4961314;29;19931;-81
2022/11/15 05:47:16;;;;;;;;;;;20.50;99.90;;;;;;4960359;29;19927;-80
2022/11/15 05:49:44;;;;;;;;;;;20.50;99.90;;;;;;4959830;29;19930;-79
2022/11/15 05:52:12;;;;;;;;;;;20.50;99.90;;;;;;4959510;29;19933;-79
2022/11/15 05:54:40;;;;;;;;;;;20.50;99.90;;;;;;4959298;29;19926;-81
2022/11/15 05:57:07;;;;;;;;;;;20.50;99.90;;;;;;4959203;29;19933;-82
2022/11/15 05:59:34;;;;;;;;;;;20.50;99.90;;;;;;4958711;29;19927;-80
2022/11/15 06:02:00;;;;;;;;;;;20.50;99.90;;;;;;4958200;29;19926;-80
2022/11/15 06:04:27;;;;;;;;;;;20.50;99.90;;;;;;4957773;29;20298;-81
2022/11/15 06:06:54;;;;;;;;;;;20.50;99.90;;;;;;4957878;29;19927;-81
2022/11/15 06:09:20;;;;;;;;;;;20.50;99.90;;;;;;4957440;29;19928;-82
2022/11/15 06:11:49;;;;;;;;;;;20.50;99.90;;;;;;4957439;29;19930;-82
2022/11/15 15:53:34;;;;;;;;;;;20.80;83.40;;;;;;4986676;28;19957;-79
2022/11/15 15:56:02;;;;;;;;;;;20.80;83.30;;;;;;4985595;28;19925;-78
2022/11/15 15:58:29;;;;;;;;;;;20.80;83.30;;;;;;4984966;28;20013;-78
2022/11/15 16:00:56;;;;;;;;;;;20.80;83.30;;;;;;4985855;28;19930;-78
2022/11/15 16:03:23;;;;;;;;;;;20.80;83.30;;;;;;4984262;28;19935;-78
2022/11/15 16:05:51;;;;;;;;;;;20.80;83.30;;;;;;4983865;28;20377;-79
2022/11/15 16:08:19;;;;;;;;;;;20.80;83.30;;;;;;4984117;28;19933;-78
2022/11/15 16:10:48;;;;;;;;;;;20.80;83.30;;;;;;4984666;28;19937;-81
2022/11/15 16:13:14;;;;;;;;;;;20.80;83.20;;;;;;4983335;28;19926;-81
2022/11/15 16:15:43;;;;;;;;;;;20.80;83.20;;;;;;4983306;28;19930;-81
2022/11/15 16:18:15;;;;;;;;;;;20.80;83.20;;;;;;4983470;28;19926;-81
2022/11/15 16:20:44;;;;;;;;;;;20.80;83.20;;;;;;4983924;28;20366;-81
2022/11/15 16:23:11;;;;;;;;;;;20.80;83.20;;;;;;4983479;28;19927;-80
2022/11/15 16:25:40;;;;;;;;;;;20.80;83.20;;;;;;4984074;28;19926;-81
2022/11/15 16:28:15;;;;;;;;;;;20.80;83.20;;;;;;4984467;28;20321;-85
2022/11/15 16:30:42;;;;;;;;;;;20.80;83.20;;;;;;4982882;28;20310;-83
2022/11/15 16:33:09;;;;;;;;;;;20.80;83.30;;;;;;4983557;28;20065;-83
2022/11/15 16:35:37;;;;;;;;;;;20.80;83.30;;;;;;4984369;28;20337;-80
2022/11/15 16:38:04;;;;;;;;;;;20.80;83.30;;;;;;4984070;28;19948;-80
2022/11/15 16:40:32;;;;;;;;;;;20.80;83.30;;;;;;4982525;28;19926;-79
2022/11/15 16:42:58;;;;;;;;;;;20.80;83.40;;;;;;4979265;28;19926;-79
2022/11/15 16:45:28;;;;;;;;;;;20.80;83.40;;;;;;4977668;28;20021;-80
2022/11/15 16:47:56;;;;;;;;;;;20.80;83.30;;;;;;4976880;28;22234;-80
2022/11/15 16:50:24;;;;;;;;;;;20.80;83.30;;;;;;4977172;28;19933;-84
2022/11/15 16:52:52;;;;;;;;;;;20.80;83.40;;;;;;4977031;28;20083;-82
2022/11/15 16:55:19;;;;;;;;;;;20.80;83.40;;;;;;4977172;28;19926;-83
2022/11/15 16:57:46;;;;;;;;;;;20.80;83.50;;;;;;4977381;28;20290;-82
2022/11/15 17:00:15;;;;;;;;;;;20.80;83.60;;;;;;4976937;28;19926;-80
2022/11/15 17:02:44;;;;;;;;;;;20.80;83.60;;;;;;4977198;28;19926;-81
2022/11/15 17:05:11;;;;;;;;;;;20.80;83.70;;;;;;4977136;28;19981;-82
2022/11/15 17:07:37;;;;;;;;;;;20.80;83.80;;;;;;4976915;28;19926;-82
2022/11/15 17:10:04;;;;;;;;;;;20.80;83.80;;;;;;4976681;28;20374;-81
2022/11/15 17:12:30;;;;;;;;;;;20.80;83.90;;;;;;4976781;28;19933;-81
2022/11/15 17:14:57;;;;;;;;;;;20.80;84.00;;;;;;4977044;28;20294;-81
2022/11/15 17:17:25;;;;;;;;;;;20.80;84.20;;;;;;4977053;28;19933;-81
2022/11/15 17:19:53;;;;;;;;;;;20.80;85.00;;;;;;4976930;28;20374;-80
2022/11/15 17:22:19;;;;;;;;;;;20.80;84.30;;;;;;4976755;28;20373;-80
2022/11/15 17:24:46;;;;;;;;;;;20.80;84.40;;;;;;4976583;28;19937;-80
2022/11/15 17:27:14;;;;;;;;;;;20.80;84.50;;;;;;4976904;28;19926;-81
2022/11/15 17:29:40;;;;;;;;;;;20.90;84.60;;;;;;4976452;28;20392;-79
2022/11/15 17:32:07;;;;;;;;;;;20.90;84.70;;;;;;4976910;28;19926;-84
2022/11/15 17:34:34;;;;;;;;;;;20.90;84.70;;;;;;4976423;28;20290;-84
2022/11/15 17:37:02;;;;;;;;;;;20.90;85.50;;;;;;4976848;28;19926;-83
2022/11/15 17:39:28;;;;;;;;;;;20.80;84.70;;;;;;4976548;28;19964;-84
2022/11/15 17:41:55;;;;;;;;;;;20.80;84.70;;;;;;4976242;28;19926;-85
2022/11/15 17:44:21;;;;;;;;;;;20.80;84.80;;;;;;4977175;28;19926;-82
2022/11/15 17:46:48;;;;;;;;;;;20.80;84.90;;;;;;4977776;28;19977;-82
2022/11/15 17:49:15;;;;;;;;;;;20.80;84.90;;;;;;4977577;28;19926;-81
2022/11/15 17:51:41;;;;;;;;;;;20.80;85.00;;;;;;4976897;28;19933;-80
2022/11/15 17:54:10;;;;;;;;;;;20.90;85.20;;;;;;4978071;28;19932;-80
2022/11/15 17:56:38;;;;;;;;;;;20.80;85.20;;;;;;4977288;28;19937;-80
2022/11/15 17:59:05;;;;;;;;;;;20.80;85.30;;;;;;4979045;28;19926;-80
2022/11/15 18:01:32;;;;;;;;;;;20.90;85.50;;;;;;4978380;28;19934;-80
2022/11/15 18:04:00;;;;;;;;;;;20.80;85.50;;;;;;4978669;28;19926;-80
2022/11/15 18:06:29;;;;;;;;;;;20.80;85.60;;;;;;4977683;28;19926;-80
2022/11/15 18:08:56;;;;;;;;;;;20.80;85.80;;;;;;4978681;28;19926;-80
2022/11/15 18:11:25;;;;;;;;;;;20.80;86.00;;;;;;4977580;28;20017;-81
2022/11/15 18:13:52;;;;;;;;;;;20.80;86.10;;;;;;4976838;28;19933;-81
2022/11/15 18:16:20;;;;;;;;;;;20.80;86.00;;;;;;4976482;28;20385;-80
2022/11/15 18:18:47;;;;;;;;;;;20.80;86.00;;;;;;4976574;28;19930;-81
2022/11/15 18:21:14;;;;;;;;;;;20.80;86.10;;;;;;4976204;28;19926;-82
2022/11/15 18:23:41;;;;;;;;;;;20.80;86.10;;;;;;4976112;28;20391;-82
2022/11/15 18:26:09;;;;;;;;;;;20.80;86.00;;;;;;4976225;28;20291;-82
2022/11/15 18:28:38;;;;;;;;;;;20.80;86.00;;;;;;4975731;28;20392;-82
2022/11/15 18:31:12;;;;;;;;;;;20.80;86.00;;;;;;4976138;28;19926;-82
2022/11/15 18:33:38;;;;;;;;;;;20.80;86.10;;;;;;4977063;28;20016;-83
2022/11/15 18:36:06;;;;;;;;;;;20.80;86.10;;;;;;4977589;28;19926;-83
2022/11/15 18:38:33;;;;;;;;;;;20.80;86.00;;;;;;4980672;28;19926;-84
2022/11/15 18:41:05;;;;;;;;;;;20.90;86.20;;;;;;4981595;28;20413;-83
2022/11/15 18:43:32;;;;;;;;;;;20.80;86.10;;;;;;4980108;28;19926;-82
2022/11/15 18:46:03;;;;;;;;;;;20.90;86.40;;;;;;4980114;28;19985;-83
2022/11/15 18:48:30;;;;;;;;;;;20.90;86.60;;;;;;4980295;28;19926;-83
2022/11/15 18:51:00;;;;;;;;;;;20.90;86.70;;;;;;4981406;28;19981;-82
2022/11/15 18:53:26;;;;;;;;;;;20.90;86.70;;;;;;4981155;28;19930;-82
2022/11/15 18:55:53;;;;;;;;;;;20.90;86.90;;;;;;4980493;28;20374;-81
2022/11/15 18:58:19;;;;;;;;;;;20.90;87.00;;;;;;4979539;28;19926;-81
2022/11/15 19:00:46;;;;;;;;;;;20.90;87.10;;;;;;4979238;28;19938;-81
2022/11/15 19:03:14;;;;;;;;;;;20.90;87.10;;;;;;4981037;28;20374;-82
2022/11/15 19:05:41;;;;;;;;;;;20.90;87.10;;;;;;4982049;28;19926;-81
2022/11/15 19:08:07;;;;;;;;;;;20.90;87.20;;;;;;4984631;28;19926;-82
2022/11/15 19:10:34;;;;;;;;;;;20.90;87.20;;;;;;4986926;28;19927;-81
2022/11/15 19:13:00;;;;;;;;;;;20.90;87.30;;;;;;4984583;28;19933;-81
2022/11/15 19:15:27;;;;;;;;;;;20.90;87.40;;;;;;4982870;28;19937;-82
2022/11/15 19:17:54;;;;;;;;;;;20.80;87.50;;;;;;4979957;28;19926;-82
2022/11/15 19:20:22;;;;;;;;;;;20.90;87.80;;;;;;4978898;28;19933;-82
2022/11/15 19:22:48;;;;;;;;;;;20.90;88.00;;;;;;4979653;28;19933;-81
2022/11/15 19:25:17;;;;;;;;;;;20.90;88.20;;;;;;4979037;28;19926;-82
2022/11/15 19:27:44;;;;;;;;;;;20.90;88.40;;;;;;4978857;28;20293;-82
2022/11/15 19:30:11;;;;;;;;;;;20.90;88.70;;;;;;4982111;28;19949;-79
2022/11/15 19:32:37;;;;;;;;;;;20.90;88.90;;;;;;4981809;28;19933;-80
2022/11/15 19:35:04;;;;;;;;;;;21.00;89.50;;;;;;4981296;28;19926;-80
2022/11/15 19:37:34;;;;;;;;;;;21.00;90.00;;;;;;4981076;28;19933;-80
2022/11/15 19:40:00;;;;;;;;;;;21.00;90.20;;;;;;4980511;28;19926;-80
2022/11/15 19:42:27;;;;;;;;;;;21.00;90.40;;;;;;4981133;28;20381;-80
2022/11/15 19:44:54;;;;;;;;;;;21.10;90.70;;;;;;4981176;28;19932;-80
2022/11/15 19:47:20;;;;;;;;;;;21.10;90.90;;;;;;4980562;28;19926;-80
2022/11/15 19:49:47;;;;;;;;;;;21.10;90.90;;;;;;4979512;28;19937;-80
2022/11/15 19:52:13;;;;;;;;;;;21.10;91.10;;;;;;4980457;28;19926;-80
2022/11/15 19:54:41;;;;;;;;;;;21.10;91.40;;;;;;4980212;28;20297;-80
2022/11/15 19:57:08;;;;;;;;;;;21.10;91.50;;;;;;4981250;28;19933;-80
2022/11/15 19:59:34;;;;;;;;;;;21.10;91.70;;;;;;4980974;28;19926;-80
2022/11/15 20:02:01;;;;;;;;;;;21.10;91.90;;;;;;4981009;28;19927;-79
2022/11/15 20:04:27;;;;;;;;;;;21.10;92.10;;;;;;4980353;28;19926;-80
2022/11/15 20:06:54;;;;;;;;;;;21.10;92.30;;;;;;4979331;28;20374;-80
2022/11/15 20:09:20;;;;;;;;;;;21.10;92.40;;;;;;4980123;28;19926;-80
2022/11/15 20:11:48;;;;;;;;;;;21.10;92.60;;;;;;4978741;28;19930;-80
2022/11/15 20:14:15;;;;;;;;;;;21.10;92.80;;;;;;4977891;28;19926;-82
2022/11/15 20:16:42;;;;;;;;;;;21.10;92.90;;;;;;4977555;28;20297;-85
2022/11/15 20:19:08;;;;;;;;;;;21.10;93.10;;;;;;4978078;28;19933;-84
2022/11/15 20:21:35;;;;;;;;;;;21.10;93.20;;;;;;4978016;28;19927;-83
2022/11/15 20:24:02;;;;;;;;;;;21.10;93.40;;;;;;4977713;28;19926;-83
2022/11/15 20:26:30;;;;;;;;;;;21.10;93.40;;;;;;4977585;28;20406;-84
2022/11/15 20:29:00;;;;;;;;;;;21.10;93.40;;;;;;4977775;28;19930;-84
2022/11/15 20:31:27;;;;;;;;;;;21.10;93.40;;;;;;4977486;28;19937;-84
2022/11/15 20:33:54;;;;;;;;;;;21.10;93.40;;;;;;4977883;28;19926;-83
2022/11/15 20:36:20;;;;;;;;;;;21.10;93.40;;;;;;4977674;28;20374;-84
2022/11/15 20:38:47;;;;;;;;;;;21.00;93.50;;;;;;4977690;28;19930;-84
2022/11/15 20:41:14;;;;;;;;;;;21.10;93.60;;;;;;4977349;28;19926;-84
2022/11/15 20:43:42;;;;;;;;;;;21.10;93.60;;;;;;4977471;28;19926;-84
2022/11/15 20:46:10;;;;;;;;;;;21.00;93.70;;;;;;4978316;28;20016;-82
2022/11/15 20:48:36;;;;;;;;;;;21.00;93.70;;;;;;4977866;28;19926;-82
2022/11/15 20:51:04;;;;;;;;;;;21.00;93.80;;;;;;4978466;28;19926;-82
2022/11/15 20:53:31;;;;;;;;;;;21.00;93.90;;;;;;4978062;28;20347;-83
2022/11/15 20:56:02;;;;;;;;;;;21.00;93.90;;;;;;4977830;28;19926;-83
2022/11/15 20:58:29;;;;;;;;;;;20.90;94.00;;;;;;4977687;28;19933;-83
2022/11/15 21:00:56;;;;;;;;;;;21.00;94.10;;;;;;4976886;28;19980;-84
2022/11/15 21:03:23;;;;;;;;;;;21.00;94.20;;;;;;4978397;28;20379;-82
2022/11/15 21:05:52;;;;;;;;;;;20.90;94.20;;;;;;4978043;28;19933;-83
2022/11/15 21:08:19;;;;;;;;;;;20.90;94.30;;;;;;4978709;28;19926;-82
2022/11/15 21:13:33;;;;;;;;;;;20.90;94.40;;;;;;4977892;28;20400;-82
2022/11/15 21:16:01;;;;;;;;;;;20.90;94.60;;;;;;4977499;28;19926;-81
2022/11/15 21:18:29;;;;;;;;;;;20.90;94.70;;;;;;4977629;28;19948;-79
2022/11/15 21:21:01;;;;;;;;;;;20.90;94.80;;;;;;4976382;28;19926;-79
2022/11/15 21:23:28;;;;;;;;;;;20.90;94.90;;;;;;4976883;28;19926;-79
2022/11/15 21:25:54;;;;;;;;;;;20.90;95.00;;;;;;4977349;28;20385;-82
2022/11/15 21:28:21;;;;;;;;;;;20.90;95.10;;;;;;4977589;28;19949;-82
2022/11/15 21:30:57;;;;;;;;;;;20.90;95.20;;;;;;4977367;28;19930;-82
2022/11/15 21:33:26;;;;;;;;;;;20.90;95.30;;;;;;4977098;28;19926;-82
2022/11/15 21:35:54;;;;;;;;;;;20.90;95.40;;;;;;4976959;28;19957;-82
2022/11/15 21:38:22;;;;;;;;;;;20.90;95.60;;;;;;4976884;28;19926;-82
2022/11/15 21:40:49;;;;;;;;;;;20.90;95.70;;;;;;4976852;28;20017;-82
2022/11/15 21:43:15;;;;;;;;;;;20.90;95.70;;;;;;4976840;28;19941;-82
2022/11/15 21:45:42;;;;;;;;;;;20.90;95.70;;;;;;4976603;28;20354;-80
2022/11/15 21:48:08;;;;;;;;;;;20.90;95.80;;;;;;4976314;28;19933;-80
2022/11/15 21:50:35;;;;;;;;;;;20.90;96.00;;;;;;4976365;28;19926;-80
2022/11/15 21:53:03;;;;;;;;;;;20.90;96.10;;;;;;4976043;28;19926;-80
2022/11/15 21:55:29;;;;;;;;;;;20.90;96.20;;;;;;4976402;28;19926;-80
2022/11/15 21:57:56;;;;;;;;;;;20.90;96.30;;;;;;4976255;28;19926;-80
2022/11/15 22:03:07;;;;;;;;;;;20.90;96.50;;;;;;4976531;28;19997;-82
2022/11/15 22:05:33;;;;;;;;;;;20.90;96.60;;;;;;4976351;28;19933;-82
2022/11/15 22:08:00;;;;;;;;;;;20.80;96.70;;;;;;4976494;28;19926;-82
2022/11/15 22:10:28;;;;;;;;;;;20.90;96.80;;;;;;4976151;28;19926;-82
2022/11/15 22:12:54;;;;;;;;;;;20.90;96.90;;;;;;4975923;28;19926;-79
2022/11/15 22:15:21;;;;;;;;;;;20.90;97.00;;;;;;4976039;28;19926;-80
2022/11/15 22:18:00;;;;;;;;;;;20.90;97.10;;;;;;4976096;28;19930;-82
2022/11/15 22:20:28;;;;;;;;;;;20.90;97.30;;;;;;4976330;28;19933;-81
2022/11/15 22:22:55;;;;;;;;;;;20.90;97.40;;;;;;4976176;28;19926;-82
2022/11/15 22:25:22;;;;;;;;;;;20.90;97.50;;;;;;4976798;28;20274;-82
2022/11/15 22:27:50;;;;;;;;;;;20.90;97.60;;;;;;4976345;28;19926;-82
2022/11/15 22:30:17;;;;;;;;;;;20.90;97.60;;;;;;4975957;28;19926;-81
2022/11/15 22:32:44;;;;;;;;;;;20.90;97.70;;;;;;4975703;28;19927;-81
2022/11/15 22:35:11;;;;;;;;;;;20.90;97.80;;;;;;4975967;28;19926;-81
2022/11/15 22:37:37;;;;;;;;;;;20.90;98.00;;;;;;4976327;28;19933;-81
2022/11/15 22:40:05;;;;;;;;;;;20.90;98.20;;;;;;4976448;28;19926;-81
2022/11/15 22:42:32;;;;;;;;;;;20.90;98.20;;;;;;4975896;28;19966;-81
2022/11/15 22:45:00;;;;;;;;;;;20.90;98.20;;;;;;4976048;28;19930;-81
2022/11/15 22:47:26;;;;;;;;;;;20.90;98.20;;;;;;4976093;28;19926;-81
2022/11/15 22:49:53;;;;;;;;;;;20.90;98.30;;;;;;4976011;28;20378;-81
2022/11/15 22:52:19;;;;;;;;;;;20.90;98.40;;;;;;4976367;28;19927;-81
2022/11/15 22:54:46;;;;;;;;;;;20.90;98.50;;;;;;4976243;28;19962;-81
2022/11/15 22:57:13;;;;;;;;;;;20.90;98.60;;;;;;4976130;28;19932;-81
2022/11/15 22:59:40;;;;;;;;;;;20.90;98.70;;;;;;4975582;28;20325;-82
2022/11/15 23:02:08;;;;;;;;;;;20.90;98.80;;;;;;4975739;28;19977;-82
2022/11/15 23:04:35;;;;;;;;;;;20.90;98.90;;;;;;4975890;28;19932;-82
2022/11/15 23:07:02;;;;;;;;;;;20.80;98.90;;;;;;4975520;28;19934;-82
2022/11/15 23:09:28;;;;;;;;;;;20.80;99.00;;;;;;4976164;28;19953;-82
2022/11/15 23:14:39;;;;;;;;;;;20.90;99.20;;;;;;4975949;28;19945;-82
2022/11/15 23:17:05;;;;;;;;;;;20.90;99.40;;;;;;4975525;28;19932;-82
2022/11/15 23:19:33;;;;;;;;;;;20.80;99.40;;;;;;4975533;28;19926;-81
